Weather observations for the past three days for
Kerrville, Kerrville Municipal Airport/Louis Schreiner Field
Imperial (Metric)
Date Time (cdt) Wind (mph) Vis. (mi.) Weather Sky Cond. Temperature (ºF) Relative Humidity Wind Chill (°F) Heat Index (°F) Pressure Precipitation (in)
Air Dwpt 6 hour altimeter (in) sea level (mb) 1 hr 3 hr 6 hr
Max. Min.
06 12:35 NE 5 4.00 Rain SCT007 SCT027 OVC035 67.6 65.7 93% 29.91 0.0 0.02
06 12:15 Calm 10.00 Overcast OVC025 68 65.7 92% 29.91 0.0
06 11:55 Calm 10.00 Overcast OVC021 68 65.3 91% 29.9 0.0
06 11:35 Calm 10.00 Overcast OVC021 67.1 65.1 93% 29.9 0.0
06 11:15 N 3 10.00 Overcast SCT005 OVC021 67.1 65.5 95% 29.9 0.0
06 10:55 NW 7 3.00 Rain BKN005 OVC017 67.1 65.5 95% 29.9 0.0 0.05
06 10:35 NW 17 G 22 1.25 Heavy Drizzle OVC005 71.4 70 95% 29.89 0.0 0.01
06 10:15 Calm 1.50 Fog/Mist OVC007 72.1 70.7 95% 29.88 0.0
06 09:55 Calm 1.50 Drizzle SCT007 OVC012 72 70.7 96% 29.88 0.0
06 09:35 Calm 1.75 Light Drizzle SCT008 OVC012 72 70.9 96% 29.87 0.0
06 09:15 E 3 1.75 Heavy Rain OVC009 72 70.9 96% 29.86 0.0
06 08:55 Calm 2.00 Light Drizzle OVC007 71.8 70.7 96% 29.86 0.0
06 08:35 SE 3 2.00 Fog/Mist SCT004 BKN009 OVC013 71.8 70.7 96% 29.83 0.0
06 08:15 SE 5 2.50 Light Rain OVC011 71.6 70.7 97% 29.82 0.0
06 07:55 SE 5 2.50 Fog/Mist BKN006 OVC009 71.6 70.7 97% 29.82 0.0
06 07:35 SE 5 2.50 Fog/Mist BKN006 OVC009 71.6 70.7 97% 29.81 0.0
06 07:15 S 3 3.00 Fog/Mist OVC009 71.6 70.7 97% 29.81 0.0
06 06:55 SE 6 3.00 Fog/Mist BKN004 OVC009 71.6 70.7 74.3 71.6 97% 29.81 0.0
06 06:35 S 6 2.50 Fog/Mist OVC004 71.6 70.7 97% 29.81 0.0
06 06:15 S 3 2.50 Fog/Mist OVC004 71.6 70.7 97% 29.81 0.0
06 05:55 SE 7 2.00 Light Drizzle OVC004 71.8 70.7 96% 29.81 0.0
06 05:35 S 6 2.50 Light Rain OVC004 71.8 70.7 96% 29.82 0.0
06 05:15 S 5 2.50 Light Rain OVC004 72 70.7 96% 29.81 0.0
06 04:55 S 9 3.00 Fog/Mist OVC004 72 70.7 96% 29.81 0.0
06 04:35 S 7 3.00 Fog/Mist OVC004 72.1 70.7 95% 29.81 0.0
06 04:15 S 7 4.00 Fog/Mist OVC004 72.1 70.9 96% 29.81 0.0
06 03:55 SE 9 3.00 Fog/Mist OVC004 72.5 70.9 95% 29.8 0.0
06 03:35 SE 10 4.00 Fog/Mist OVC006 72.9 70.7 93% 29.8 0.0
06 03:15 SE 14 7.00 Overcast OVC008 73.4 70.7 91% 29.8 0.0
06 02:55 S 10 G 16 7.00 Overcast OVC008 73.6 70.7 91% 29.8 0.0
06 02:35 SE 13 7.00 Overcast OVC010 73.8 70.7 90% 29.8 0.0
06 02:15 S 9 7.00 Overcast OVC010 73.9 70.9 90% 29.81 0.0
06 01:55 SE 8 7.00 Overcast OVC010 74.3 71.1 90% 29.81 0.0
06 01:35 S 10 7.00 Overcast BKN012 OVC019 74.3 71.2 90% 29.81 0.0
06 01:15 SE 5 10.00 Overcast OVC012 73.6 70.7 91% 29.82 0.0
06 00:55 SE 3 10.00 Overcast OVC012 73 70.2 82.8 71.1 91% 29.81 0.0
06 00:35 SE 6 10.00 Overcast OVC012 72.9 69.8 90% 29.81 0.0
06 00:15 SE 5 10.00 Overcast OVC014 72.3 69.4 91% 29.81 0.0
05 23:55 Calm 10.00 Mostly Cloudy BKN014 71.4 68.2 90% 29.82 0.0
05 23:35 Calm 10.00 Fair CLR 71.4 68.4 90% 29.82 0.0
05 23:15 Calm 10.00 Fair CLR 73.4 68.4 84% 29.81 0.0
05 22:55 E 5 10.00 Fair CLR 74.8 69.1 82% 29.8 0.0
05 22:35 E 5 10.00 Fair CLR 75.2 68.9 81% 76 29.8 0.0
05 22:15 E 5 10.00 Fair CLR 75.6 68.5 79% 76 29.79 0.0
05 21:55 E 3 10.00 Fair CLR 75.2 68.7 80% 76 29.78 0.0
05 21:35 Calm 10.00 Fair CLR 75.4 68.4 79% 76 29.77 0.0
05 21:15 SE 3 10.00 Fair CLR 76.5 68.9 78% 78 29.76 0.0
05 20:55 SE 3 10.00 Fair CLR 77 68.9 76% 79 29.75 0.0
05 20:35 SE 3 10.00 Fair CLR 77.5 69.1 75% 79 29.74 0.0
05 20:15 SE 6 10.00 Fair CLR 78.1 69.4 75% 80 29.73 0.0
05 19:55 SE 5 10.00 Fair CLR 80.1 69.6 71% 83 29.73 0.0
05 19:35 SE 8 10.00 Fair CLR 81.3 69.6 68% 85 29.74 0.0
05 19:15 SE 8 10.00 Fair CLR 82.2 69.8 66% 86 29.74 0.0
05 18:55 S 7 10.00 Fair CLR 82.9 68.5 84.9 77 62% 86 29.74 0.0
05 18:35 S 8 10.00 Fair CLR 83.3 68.5 61% 87 29.73 0.0
05 18:15 S 7 10.00 Fair CLR 84.4 67.6 57% 87 29.73 0.0
05 17:55 S 8 10.00 Fair CLR 83.5 67.8 59% 87 29.73 0.0
05 17:35 SW 8 10.00 Fair CLR 83.8 67.8 59% 87 29.74 0.0
05 17:15 S 6 10.00 Partly Cloudy SCT039 83.3 68.2 60% 86 29.73 0.0
05 16:55 S 10 G 18 10.00 Partly Cloudy SCT038 83.5 68.5 61% 87 29.74 0.0
05 16:35 S 9 10.00 Fair CLR 84.2 68.7 60% 88 29.74 0.0
05 16:15 S 8 10.00 Fair CLR 84.4 68.9 60% 88 29.74 0.0
05 15:55 S 10 10.00 Partly Cloudy SCT034 84.4 68.4 59% 88 29.76 0.0
05 15:35 S 13 10.00 Partly Cloudy SCT034 83.5 68.9 62% 87 29.76 0.0
05 15:15 S 9 10.00 Fair CLR 83.3 68.7 62% 87 29.77 0.0
05 14:55 S 9 10.00 Fair CLR 81.9 68.4 64% 85 29.78 0.0
05 14:35 S 9 10.00 Partly Cloudy SCT026 81.5 68.5 65% 85 29.78 0.0
05 14:15 S 12 10.00 Partly Cloudy SCT026 79.2 67.6 68% 81 29.79 0.0
05 13:55 S 8 10.00 Mostly Cloudy BKN024 80.6 68.5 67% 83 29.8 0.0
05 13:35 SW 8 10.00 Mostly Cloudy BKN022 77.7 67.6 71% 80 29.81 0.0
05 13:15 SW 6 10.00 Mostly Cloudy BKN020 77.7 67.3 70% 80 29.82 0.0
05 12:55 S 10 10.00 Overcast OVC018 76.1 67.5 77.7 67.1 75% 78 29.82 0.0
05 12:40 SW 8 10.00 Overcast OVC018 76.5 66.9 72% 78 29.83 0.0
05 12:15 SW 5 10.00 Overcast OVC016 74.3 66.7 77% 29.83 0.0
05 11:55 S 6 10.00 Overcast OVC012 72.7 66.6 81% 29.83 0.0
05 11:35 S 8 10.00 Overcast OVC012 72.1 66.4 82% 29.83 0.0
05 11:15 S 10 10.00 Overcast OVC010 70.9 66.2 85% 29.83 0.0
05 10:55 S 8 10.00 Overcast OVC008 70.2 66 87% 29.82 0.0
05 10:35 SW 9 10.00 Overcast OVC008 69.6 65.8 88% 29.83 0.0
05 10:15 S 8 10.00 Overcast OVC006 68.7 65.8 91% 29.83 0.0
05 09:55 S 10 10.00 Overcast OVC006 68.2 65.8 92% 29.83 0.0
05 09:35 S 9 10.00 Overcast OVC006 68 65.8 93% 29.83 0.0
05 09:15 S 9 7.00 Overcast OVC006 67.5 65.8 95% 29.82 0.0
05 08:55 S 9 5.00 Fog/Mist OVC006 67.3 65.8 95% 29.82 0.0
05 08:35 S 9 5.00 Fog/Mist OVC004 67.1 65.8 96% 29.82 0.0
05 08:15 S 8 3.00 Fog/Mist OVC004 67.1 65.8 96% 29.81 0.0
05 07:55 S 9 4.00 Fog/Mist OVC004 67.1 65.7 95% 29.81 0.0
05 07:35 S 9 4.00 Fog/Mist OVC004 67.1 65.7 95% 29.8 0.0
05 07:15 S 6 5.00 Fog/Mist OVC004 67.1 65.7 95% 29.8 0.0
05 06:55 S 8 7.00 Overcast OVC004 67.3 65.5 68.9 67.3 94% 29.79 0.0
05 06:35 S 8 10.00 Overcast OVC006 67.6 65.5 93% 29.78 0.0
05 06:15 S 9 10.00 Overcast OVC006 67.6 65.5 93% 29.78 0.0
05 05:55 S 10 10.00 Overcast OVC006 67.6 65.5 93% 29.78 0.0
05 05:35 S 8 10.00 Overcast OVC006 68 65.7 92% 29.78 0.0
05 05:15 S 7 10.00 Overcast OVC006 68 65.5 92% 29.78 0.0
05 04:55 S 13 10.00 Overcast OVC008 68 65.7 92% 29.79 0.0
05 04:35 S 13 10.00 Overcast OVC008 68 65.5 92% 29.79 0.0
05 04:15 S 8 10.00 Overcast OVC008 68 65.5 92% 29.79 0.0
05 03:55 S 8 10.00 Overcast OVC008 68.2 65.5 91% 29.79 0.0
05 03:35 S 6 G 13 10.00 Overcast OVC008 68.2 65.5 91% 29.8 0.0
05 03:15 S 8 G 18 10.00 Overcast OVC008 68.2 65.3 91% 29.81 0.0
05 02:55 S 12 10.00 Overcast OVC008 68.4 65.5 91% 29.81 0.0
05 02:35 S 13 G 18 10.00 Overcast OVC010 68.4 65.3 90% 29.82 0.0
05 02:15 S 15 10.00 Overcast OVC010 68.4 65.3 90% 29.81 0.0
05 01:55 S 10 10.00 Overcast OVC010 68.5 65.3 89% 29.83 0.0
05 01:35 S 14 10.00 Overcast OVC010 68.9 65.3 88% 29.83 0.0
05 01:15 S 13 G 18 10.00 Overcast OVC014 68.5 64.9 88% 29.84 0.0
05 00:55 S 12 10.00 Partly Cloudy SCT014 68.4 64.4 77.4 68.4 87% 29.84 0.0
05 00:35 S 12 10.00 Fair CLR 68.5 64.2 86% 29.84 0.0
05 00:15 S 10 10.00 Fair CLR 69.1 63.9 84% 29.84 0.0
04 23:55 SE 9 10.00 Fair CLR 69.1 63.5 83% 29.84 0.0
04 23:35 SE 10 10.00 Fair CLR 68.9 62.8 81% 29.84 0.0
04 23:15 S 8 10.00 Fair CLR 70.2 62.6 77% 29.84 0.0
04 22:55 S 7 10.00 Fair CLR 69.6 62.1 77% 29.84 0.0
04 22:35 S 6 10.00 Fair CLR 70.3 62.4 76% 29.83 0.0
04 22:15 S 7 10.00 Fair CLR 70.7 62.6 76% 29.83 0.0
04 21:55 S 7 10.00 Fair CLR 70.5 62.6 76% 29.84 0.0
04 21:35 S 9 10.00 Fair CLR 70.9 62.6 75% 29.83 0.0
04 21:15 S 7 10.00 Fair CLR 71.1 62.6 75% 29.84 0.0
04 20:55 S 7 10.00 Fair CLR 72 62.6 73% 29.83 0.0
04 20:35 S 8 10.00 Fair CLR 73 62.6 70% 29.83 0.0
04 20:15 S 7 10.00 Fair CLR 73.9 62.8 68% 29.83 0.0
04 19:55 S 9 10.00 Partly Cloudy SCT035 75 62.8 66% 77 29.83 0.0
04 19:35 S 9 10.00 Partly Cloudy SCT035 76.1 62.6 63% 78 29.83 0.0
04 19:15 S 10 G 20 10.00 Partly Cloudy SCT035 77 62.8 62% 79 29.83 0.0
04 18:55 S 10 G 17 10.00 Fair CLR 77 63 79.3 74.5 62% 79 29.83 0.0
04 18:35 S 13 10.00 Fair CLR 77.9 62.8 60% 80 29.83 0.0
04 18:15 S 16 G 22 10.00 Fair CLR 78.6 62.8 58% 80 29.83 0.0
04 17:55 S 14 G 21 10.00 Fair CLR 78.3 62.6 59% 80 29.84 0.0
04 17:35 S 15 G 21 10.00 Fair CLR 77.4 62.6 61% 79 29.84 0.0
04 17:15 S 13 G 21 10.00 Fair CLR 79 63 58% 81 29.85 0.0
04 16:55 SE 13 10.00 Fair CLR 79 63.1 58% 81 29.86 0.0
04 16:35 S 14 G 22 10.00 Fair CLR 78.8 62.6 58% 80 29.86 0.0
04 16:15 S 17 G 23 10.00 Partly Cloudy SCT035 77.7 62.4 59% 79 29.87 0.0
04 15:55 S 14 G 18 10.00 Partly Cloudy SCT033 77.9 62.6 59% 80 29.88 0.0
04 15:35 S 15 10.00 Mostly Cloudy BKN033 78.4 62.4 58% 80 29.9 0.0
04 15:15 S 17 G 22 10.00 Mostly Cloudy BKN033 77.7 62.4 59% 79 29.9 0.0
04 14:55 S 16 G 21 10.00 Mostly Cloudy BKN033 77.5 62.6 60% 79 29.92 0.0
04 14:35 S 14 G 22 10.00 Mostly Cloudy BKN033 76.3 61.7 61% 78 29.92 0.0
04 14:15 S 12 G 23 10.00 Mostly Cloudy BKN031 77.4 62.2 60% 79 29.93 0.0
04 13:55 S 13 G 18 10.00 Mostly Cloudy BKN031 76.6 62.2 61% 78 29.93 0.0
04 13:35 S 18 G 24 10.00 Mostly Cloudy BKN031 77.4 62.1 59% 79 29.93 0.0
04 13:15 S 14 G 22 10.00 Mostly Cloudy BKN027 75.6 61.5 62% 78 29.94 0.0
04 12:55 S 14 10.00 Overcast OVC025 73.6 61.9 73.6 60.3 67% 29.95 0.0
04 12:35 S 12 G 20 10.00 Overcast OVC025 72.1 60.6 67% 29.96 0.0
04 12:15 S 18 G 23 10.00 Overcast OVC023 72.3 61 68% 29.96 0.0
04 11:55 S 16 G 23 10.00 Overcast OVC023 71.6 60.4 68% 29.97 0.0
04 11:35 S 15 G 24 10.00 Overcast OVC021 70.3 60.4 71% 29.97 0.0
04 11:15 S 17 G 22 10.00 Mostly Cloudy BKN023 68.2 59.9 75% 29.98 0.0
04 10:55 S 17 G 23 10.00 Overcast OVC019 67.8 59.4 74% 29.98 0.0
04 10:35 SW 15 G 22 10.00 Overcast BKN017 OVC022 67.8 59.9 76% 29.98 0.0
04 10:15 S 16 G 24 10.00 Overcast OVC015 66.4 59.9 80% 29.98 0.0
04 09:55 S 10 G 16 10.00 Overcast OVC013 65.3 59.5 82% 29.99 0.0
04 09:35 S 12 G 17 10.00 Overcast OVC013 64.4 59 83% 29.99 0.0
04 09:15 S 14 G 18 10.00 Overcast OVC013 63.5 58.5 84% 29.99 0.0
04 08:55 S 14 G 20 10.00 Overcast OVC011 62.8 58.1 85% 29.99 0.0
04 08:35 S 13 G 16 10.00 Overcast OVC011 62.1 57.4 85% 29.99 0.0
04 08:15 S 10 10.00 Overcast OVC013 61.7 57 85% 29.99 0.0
04 07:35 S 6 10.00 Overcast OVC013 60.4 55.8 85% 29.98 0.0
04 07:15 S 10 10.00 Overcast OVC015 60.3 55.6 85% 29.97 0.0
04 06:55 S 8 10.00 Overcast OVC015 60.4 55.4 61.2 59.5 84% 29.97 0.0
04 06:35 S 7 10.00 Overcast OVC017 60.4 55.4 84% 29.98 0.0
04 06:15 S 8 10.00 Mostly Cloudy BKN017 60.1 55.4 85% 29.97 0.0
04 05:55 S 7 10.00 Fair CLR 59.9 55.2 85% 29.97 0.0
04 05:35 S 9 10.00 Fair CLR 60.1 55 84% 29.98 0.0
04 05:15 S 9 10.00 Fair CLR 60.3 55 83% 29.98 0.0
04 04:55 S 8 10.00 Fair CLR 60.4 55 82% 29.99 0.0
04 04:35 S 9 10.00 Fair CLR 60.8 54.9 81% 29.99 0.0
04 04:15 S 9 10.00 Fair CLR 60.3 54.9 82% 29.98 0.0
04 03:55 S 10 10.00 Fair CLR 59.9 54.7 83% 29.99 0.0
04 03:35 S 7 10.00 Fair CLR 59.9 54.5 82% 30.01 0.0
04 03:15 S 7 10.00 Fair CLR 59.9 54.5 82% 30.01 0.0
04 02:55 SE 8 10.00 Fair CLR 60.1 54.3 81% 30.01 0.0
04 02:35 S 9 10.00 Fair CLR 60.3 54.1 80% 30.01 0.0
04 02:15 SE 9 10.00 Fair CLR 59.9 53.6 80% 30.01 0.0
04 01:55 SE 7 10.00 Fair CLR 59.5 53.1 79% 30.03 0.0
04 01:35 S 9 10.00 Fair CLR 61 52.9 75% 30.04 0.0
04 01:15 S 8 10.00 Fair CLR 60.8 52.3 74% 30.05 0.0
04 00:55 S 8 10.00 Fair CLR 61.2 51.8 73.4 58.6 71% 30.05 0.0
04 00:35 SE 7 10.00 Fair CLR 61.5 51.4 70% 30.05 0.0
04 00:15 S 7 10.00 Fair CLR 59.9 50.7 72% 30.06 0.0
03 23:55 Calm 10.00 Fair CLR 59.5 50.5 72% 30.06 0.0
03 23:35 SE 3 10.00 Fair CLR 58.6 50.2 74% 30.05 0.0
03 23:15 SE 3 10.00 Fair CLR 60.8 49.6 67% 30.06 0.0
03 22:55 SE 5 10.00 Fair CLR 63.5 48.4 58% 30.06 0.0
03 22:35 SE 3 10.00 Fair CLR 63.5 49.1 60% 30.06 0.0
03 22:15 SE 3 10.00 Fair CLR 63.7 49.3 60% 30.06 0.0
03 21:55 SE 3 10.00 Fair CLR 63.9 49.1 59% 30.06 0.0
03 21:35 SE 3 10.00 Fair CLR 62.1 50.2 65% 30.06 0.0
03 21:15 SE 3 10.00 Fair CLR 64.8 48.4 56% 30.06 0.0
03 20:55 SE 3 10.00 Fair CLR 65.7 48.6 54% 30.06 0.0
03 20:35 SE 3 10.00 Fair CLR 65.3 49.5 57% 30.06 0.0
03 20:15 SE 5 10.00 Fair CLR 67.1 49.1 53% 30.05 0.0
03 19:55 S 7 10.00 Fair CLR 68.7 48.2 48% 30.05 0.0
03 19:35 S 9 10.00 Fair CLR 70.3 46.6 43% 30.05 0.0
03 19:15 S 9 10.00 Fair CLR 71.8 46.8 41% 30.05 0.0
03 18:55 S 14 10.00 Fair CLR 73.4 46.9 76.3 72 39% 30.06 0.0
03 18:35 S 10 10.00 Fair CLR 73.8 45.9 37% 30.06 0.0
03 18:15 S 14 10.00 Fair CLR 74.8 45.7 36% 30.06 0.0
03 17:55 SE 12 G 18 10.00 Fair CLR 74.3 45.5 36% 30.06 0.0
03 17:35 SE 10 10.00 Fair CLR 75.2 46.6 36% 77 30.07 0.0
03 17:15 S 14 10.00 Fair CLR 75.2 44.8 34% 77 30.07 0.0
03 16:55 S 14 G 17 10.00 Fair CLR 75.2 44.2 33% 77 30.08 0.0
03 16:35 S 8 10.00 Fair CLR 75.6 44.6 33% 77 30.09 0.0
03 16:15 S 10 G 16 10.00 Fair CLR 76.3 45.1 33% 78 30.11 0.0
03 15:55 S 14 10.00 Fair CLR 75.4 43.9 33% 77 30.11 0.0
03 15:35 S 12 10.00 Fair CLR 73.9 43.5 34% 30.13 0.0
03 15:15 S 9 G 18 10.00 Fair CLR 75.4 43.2 32% 77 30.14 0.0
03 14:55 SW 6 G 16 10.00 Fair CLR 75 43.9 33% 77 30.15 0.0
03 14:35 SE 10 G 18 10.00 Fair CLR 74.1 42.4 32% 30.16 0.0
03 14:15 S 9 10.00 Fair CLR 74.1 45.9 37% 30.16 0.0
03 13:55 SE 10 10.00 Fair CLR 73.6 45.7 37% 30.17 0.0
03 13:35 SE 10 G 16 10.00 Fair CLR 72.3 45.5 38% 30.18 0.0
03 13:15 S 8 G 16 10.00 Fair CLR 72.5 46.6 40% 30.19 0.0
03 12:55 SE 13 10.00 Fair CLR 72.9 47.7 73 43.5 41% 30.2 0.0
Date Time (cdt) Wind (mph) Vis. (mi.) Weather Sky Cond. Air Dwpt Max. Min. Relative Humidity Wind Chill (°F) Heat Index (°F) altimeter (in) sea level (mb) 1 hr 3 hr 6 hr
6 hour
Temperature (ºF) Pressure Precipitation (in)